sensor_id;sensor_type;location;lat;lon;timestamp;pressure;altitude;pressure_sealevel;temperature;humidity
42297;BME280;72430;47.456;19.016;2023-09-12T00:00:48;100133.50;;;16.33;94.08
42297;BME280;72430;47.456;19.016;2023-09-12T00:03:50;100140.59;;;16.19;93.62
42297;BME280;72430;47.456;19.016;2023-09-12T00:06:52;100131.88;;;16.47;91.25
42297;BME280;72430;47.456;19.016;2023-09-12T00:09:54;100133.59;;;16.25;93.44
42297;BME280;72430;47.456;19.016;2023-09-12T00:12:55;100131.66;;;16.34;91.90
42297;BME280;72430;47.456;19.016;2023-09-12T00:15:58;100137.00;;;16.42;91.65
42297;BME280;72430;47.456;19.016;2023-09-12T00:19:00;100137.94;;;16.34;91.55
42297;BME280;72430;47.456;19.016;2023-09-12T00:22:02;100134.28;;;16.42;91.10
42297;BME280;72430;47.456;19.016;2023-09-12T00:25:05;100130.63;;;15.71;98.47
42297;BME280;72430;47.456;19.016;2023-09-12T00:28:07;100128.63;;;16.05;95.45
42297;BME280;72430;47.456;19.016;2023-09-12T00:31:09;100131.84;;;16.09;94.24
42297;BME280;72430;47.456;19.016;2023-09-12T00:34:15;100141.19;;;16.06;94.01
42297;BME280;72430;47.456;19.016;2023-09-12T00:37:17;100138.47;;;16.06;93.34
42297;BME280;72430;47.456;19.016;2023-09-12T00:40:19;100143.53;;;15.78;96.94
42297;BME280;72430;47.456;19.016;2023-09-12T00:43:21;100139.31;;;15.67;96.12
42297;BME280;72430;47.456;19.016;2023-09-12T00:46:23;100132.03;;;15.67;96.76
42297;BME280;72430;47.456;19.016;2023-09-12T00:49:27;100130.78;;;15.78;96.18
42297;BME280;72430;47.456;19.016;2023-09-12T00:52:33;100131.97;;;15.76;95.40
42297;BME280;72430;47.456;19.016;2023-09-12T00:55:40;100132.19;;;16.06;94.00
42297;BME280;72430;47.456;19.016;2023-09-12T00:58:45;100134.16;;;16.12;92.25
42297;BME280;72430;47.456;19.016;2023-09-12T01:01:48;100133.22;;;15.65;95.58
42297;BME280;72430;47.456;19.016;2023-09-12T01:04:50;100131.34;;;15.25;100.00
42297;BME280;72430;47.456;19.016;2023-09-12T01:07:52;100136.72;;;15.42;99.96
42297;BME280;72430;47.456;19.016;2023-09-12T01:10:56;100132.22;;;15.66;98.98
42297;BME280;72430;47.456;19.016;2023-09-12T01:13:59;100127.94;;;15.71;97.79
42297;BME280;72430;47.456;19.016;2023-09-12T01:17:01;100131.94;;;15.52;97.97
42297;BME280;72430;47.456;19.016;2023-09-12T01:20:08;100131.56;;;15.64;98.03
42297;BME280;72430;47.456;19.016;2023-09-12T01:30:25;100126.66;;;15.02;98.94
42297;BME280;72430;47.456;19.016;2023-09-12T01:33:29;100128.81;;;15.24;97.54
42297;BME280;72430;47.456;19.016;2023-09-12T01:36:31;100133.56;;;15.22;97.49
42297;BME280;72430;47.456;19.016;2023-09-12T01:39:33;100123.50;;;15.39;96.30
42297;BME280;72430;47.456;19.016;2023-09-12T01:42:42;100130.84;;;15.22;97.62
42297;BME280;72430;47.456;19.016;2023-09-12T01:45:55;100130.06;;;15.05;98.80
42297;BME280;72430;47.456;19.016;2023-09-12T01:49:00;100131.63;;;15.39;97.53
42297;BME280;72430;47.456;19.016;2023-09-12T01:52:02;100131.22;;;15.10;99.04
42297;BME280;72430;47.456;19.016;2023-09-12T01:55:06;100130.69;;;15.23;99.10
42297;BME280;72430;47.456;19.016;2023-09-12T01:58:12;100141.47;;;14.83;100.00
42297;BME280;72430;47.456;19.016;2023-09-12T02:01:14;100136.78;;;15.25;98.52
42297;BME280;72430;47.456;19.016;2023-09-12T02:04:16;100134.41;;;15.22;98.63
42297;BME280;72430;47.456;19.016;2023-09-12T02:07:18;100135.94;;;15.16;99.88
42297;BME280;72430;47.456;19.016;2023-09-12T02:10:19;100133.59;;;15.05;100.00
42297;BME280;72430;47.456;19.016;2023-09-12T02:13:21;100139.31;;;15.27;100.00
42297;BME280;72430;47.456;19.016;2023-09-12T02:16:23;100145.72;;;15.34;100.00
42297;BME280;72430;47.456;19.016;2023-09-12T02:19:25;100143.00;;;15.42;99.71
42297;BME280;72430;47.456;19.016;2023-09-12T02:22:27;100142.09;;;15.50;97.90
42297;BME280;72430;47.456;19.016;2023-09-12T02:25:29;100146.63;;;15.18;99.70
42297;BME280;72430;47.456;19.016;2023-09-12T02:28:30;100142.78;;;14.96;100.00
42297;BME280;72430;47.456;19.016;2023-09-12T02:31:32;100138.28;;;15.28;97.63
42297;BME280;72430;47.456;19.016;2023-09-12T02:34:34;100141.59;;;14.98;99.63
42297;BME280;72430;47.456;19.016;2023-09-12T02:37:36;100134.19;;;14.75;100.00
42297;BME280;72430;47.456;19.016;2023-09-12T02:40:37;100140.06;;;14.62;100.00
42297;BME280;72430;47.456;19.016;2023-09-12T02:43:39;100144.81;;;14.77;100.00
42297;BME280;72430;47.456;19.016;2023-09-12T02:46:41;100138.41;;;14.78;100.00
42297;BME280;72430;47.456;19.016;2023-09-12T02:49:43;100142.94;;;14.86;100.00
42297;BME280;72430;47.456;19.016;2023-09-12T02:52:45;100144.28;;;15.07;99.58
42297;BME280;72430;47.456;19.016;2023-09-12T02:55:47;100131.75;;;14.72;100.00
42297;BME280;72430;47.456;19.016;2023-09-12T02:58:49;100131.75;;;14.97;100.00
42297;BME280;72430;47.456;19.016;2023-09-12T03:01:51;100133.28;;;15.00;99.10
42297;BME280;72430;47.456;19.016;2023-09-12T03:04:53;100138.19;;;15.05;98.40
42297;BME280;72430;47.456;19.016;2023-09-12T03:07:55;100133.31;;;14.67;100.00
42297;BME280;72430;47.456;19.016;2023-09-12T03:10:57;100141.56;;;14.73;100.00
42297;BME280;72430;47.456;19.016;2023-09-12T03:13:59;100142.13;;;14.77;100.00
42297;BME280;72430;47.456;19.016;2023-09-12T03:17:02;100138.88;;;14.73;100.00
42297;BME280;72430;47.456;19.016;2023-09-12T03:20:05;100143.16;;;14.84;100.00
42297;BME280;72430;47.456;19.016;2023-09-12T03:23:09;100143.31;;;14.83;100.00
42297;BME280;72430;47.456;19.016;2023-09-12T03:26:11;100144.81;;;14.85;100.00
42297;BME280;72430;47.456;19.016;2023-09-12T03:29:13;100146.88;;;14.83;100.00
42297;BME280;72430;47.456;19.016;2023-09-12T03:32:15;100146.84;;;14.58;100.00
42297;BME280;72430;47.456;19.016;2023-09-12T03:35:16;100148.72;;;14.58;100.00
42297;BME280;72430;47.456;19.016;2023-09-12T03:38:18;100148.69;;;14.49;100.00
42297;BME280;72430;47.456;19.016;2023-09-12T03:41:20;100146.50;;;14.45;100.00
42297;BME280;72430;47.456;19.016;2023-09-12T03:44:26;100154.63;;;14.36;100.00
42297;BME280;72430;47.456;19.016;2023-09-12T03:47:28;100155.94;;;14.07;100.00
42297;BME280;72430;47.456;19.016;2023-09-12T03:50:30;100142.44;;;14.49;100.00
42297;BME280;72430;47.456;19.016;2023-09-12T03:53:32;100143.63;;;14.46;100.00
42297;BME280;72430;47.456;19.016;2023-09-12T03:56:34;100149.91;;;14.55;100.00
42297;BME280;72430;47.456;19.016;2023-09-12T03:59:35;100143.13;;;14.26;100.00
42297;BME280;72430;47.456;19.016;2023-09-12T04:02:37;100146.50;;;14.53;100.00
42297;BME280;72430;47.456;19.016;2023-09-12T04:05:39;100154.63;;;14.61;100.00
42297;BME280;72430;47.456;19.016;2023-09-12T04:08:41;100151.09;;;14.77;100.00
42297;BME280;72430;47.456;19.016;2023-09-12T04:11:43;100148.72;;;14.83;100.00
42297;BME280;72430;47.456;19.016;2023-09-12T04:14:52;100153.78;;;14.69;100.00
42297;BME280;72430;47.456;19.016;2023-09-12T04:17:56;100154.31;;;14.89;100.00
42297;BME280;72430;47.456;19.016;2023-09-12T04:20:58;100153.13;;;14.84;100.00
42297;BME280;72430;47.456;19.016;2023-09-12T04:23:59;100151.59;;;14.89;100.00
42297;BME280;72430;47.456;19.016;2023-09-12T04:27:01;100155.47;;;14.95;100.00
42297;BME280;72430;47.456;19.016;2023-09-12T04:30:07;100147.69;;;14.84;100.00
42297;BME280;72430;47.456;19.016;2023-09-12T04:33:09;100162.09;;;14.76;100.00
42297;BME280;72430;47.456;19.016;2023-09-12T04:36:11;100155.34;;;14.80;100.00
42297;BME280;72430;47.456;19.016;2023-09-12T04:39:13;100161.41;;;14.57;100.00
42297;BME280;72430;47.456;19.016;2023-09-12T04:42:14;100165.59;;;14.27;100.00
42297;BME280;72430;47.456;19.016;2023-09-12T04:45:16;100162.75;;;14.53;100.00
42297;BME280;72430;47.456;19.016;2023-09-12T04:48:20;100163.28;;;14.57;100.00
42297;BME280;72430;47.456;19.016;2023-09-12T04:51:22;100167.34;;;14.69;100.00
42297;BME280;72430;47.456;19.016;2023-09-12T04:54:24;100175.66;;;14.76;100.00
42297;BME280;72430;47.456;19.016;2023-09-12T04:57:26;100176.16;;;14.88;100.00
42297;BME280;72430;47.456;19.016;2023-09-12T05:00:30;100180.38;;;14.66;100.00
42297;BME280;72430;47.456;19.016;2023-09-12T05:03:32;100182.28;;;14.82;100.00
42297;BME280;72430;47.456;19.016;2023-09-12T05:06:35;100181.88;;;14.68;100.00
42297;BME280;72430;47.456;19.016;2023-09-12T05:09:37;100186.16;;;14.79;100.00
42297;BME280;72430;47.456;19.016;2023-09-12T05:12:39;100180.69;;;15.12;100.00
42297;BME280;72430;47.456;19.016;2023-09-12T05:15:41;100182.03;;;15.25;100.00
42297;BME280;72430;47.456;19.016;2023-09-12T05:18:43;100180.78;;;15.44;99.54
42297;BME280;72430;47.456;19.016;2023-09-12T05:21:46;100179.59;;;15.47;98.36
42297;BME280;72430;47.456;19.016;2023-09-12T05:24:47;100184.16;;;15.54;98.99
42297;BME280;72430;47.456;19.016;2023-09-12T05:27:50;100184.81;;;15.56;98.25
42297;BME280;72430;47.456;19.016;2023-09-12T05:30:52;100187.13;;;15.76;98.29
42297;BME280;72430;47.456;19.016;2023-09-12T05:33:55;100189.78;;;15.84;97.42
42297;BME280;72430;47.456;19.016;2023-09-12T05:36:57;100184.78;;;16.05;96.92
42297;BME280;72430;47.456;19.016;2023-09-12T05:39:59;100196.13;;;16.08;96.30
42297;BME280;72430;47.456;19.016;2023-09-12T05:43:00;100190.63;;;16.25;95.30
42297;BME280;72430;47.456;19.016;2023-09-12T05:46:02;100202.38;;;16.17;95.45
42297;BME280;72430;47.456;19.016;2023-09-12T05:49:04;100202.09;;;16.35;96.10
42297;BME280;72430;47.456;19.016;2023-09-12T05:52:06;100208.19;;;16.37;96.63
42297;BME280;72430;47.456;19.016;2023-09-12T05:55:08;100202.41;;;16.41;96.98
42297;BME280;72430;47.456;19.016;2023-09-12T05:58:10;100200.41;;;16.58;95.76
42297;BME280;72430;47.456;19.016;2023-09-12T06:01:12;100195.19;;;16.71;96.18
42297;BME280;72430;47.456;19.016;2023-09-12T06:04:14;100202.75;;;16.84;94.53
42297;BME280;72430;47.456;19.016;2023-09-12T06:07:16;100198.94;;;16.94;93.68
42297;BME280;72430;47.456;19.016;2023-09-12T06:10:18;100210.44;;;17.19;93.53
42297;BME280;72430;47.456;19.016;2023-09-12T06:13:20;100215.72;;;17.36;93.44
42297;BME280;72430;47.456;19.016;2023-09-12T06:16:22;100204.00;;;17.50;92.28
42297;BME280;72430;47.456;19.016;2023-09-12T06:19:24;100207.84;;;17.71;91.04
42297;BME280;72430;47.456;19.016;2023-09-12T06:22:26;100209.50;;;17.87;89.42
42297;BME280;72430;47.456;19.016;2023-09-12T06:25:28;100212.69;;;18.21;87.15
42297;BME280;72430;47.456;19.016;2023-09-12T06:28:31;100203.09;;;18.47;85.20
42297;BME280;72430;47.456;19.016;2023-09-12T06:31:34;100205.97;;;18.38;85.46
42297;BME280;72430;47.456;19.016;2023-09-12T06:34:37;100204.78;;;18.70;83.79
42297;BME280;72430;47.456;19.016;2023-09-12T06:37:38;100212.50;;;18.66;82.65
42297;BME280;72430;47.456;19.016;2023-09-12T06:40:43;100210.44;;;18.97;82.09
42297;BME280;72430;47.456;19.016;2023-09-12T06:43:44;100210.34;;;19.05;81.81
42297;BME280;72430;47.456;19.016;2023-09-12T06:46:46;100205.72;;;19.05;82.23
42297;BME280;72430;47.456;19.016;2023-09-12T06:49:48;100213.44;;;19.24;81.82
42297;BME280;72430;47.456;19.016;2023-09-12T06:52:56;100210.19;;;19.42;79.84
42297;BME280;72430;47.456;19.016;2023-09-12T06:55:58;100211.09;;;19.56;80.81
42297;BME280;72430;47.456;19.016;2023-09-12T06:59:00;100214.56;;;19.71;79.71
42297;BME280;72430;47.456;19.016;2023-09-12T07:02:02;100210.88;;;19.93;78.82
42297;BME280;72430;47.456;19.016;2023-09-12T07:05:04;100217.72;;;20.17;78.13
42297;BME280;72430;47.456;19.016;2023-09-12T07:08:06;100216.31;;;20.42;78.48
42297;BME280;72430;47.456;19.016;2023-09-12T07:11:08;100210.28;;;20.80;81.07
42297;BME280;72430;47.456;19.016;2023-09-12T07:14:10;100211.59;;;21.04;73.89
42297;BME280;72430;47.456;19.016;2023-09-12T07:17:11;100218.72;;;21.05;73.79
42297;BME280;72430;47.456;19.016;2023-09-12T07:20:13;100214.91;;;21.20;73.92
42297;BME280;72430;47.456;19.016;2023-09-12T07:23:17;100220.16;;;21.35;71.41
42297;BME280;72430;47.456;19.016;2023-09-12T07:26:18;100220.16;;;21.42;73.06
42297;BME280;72430;47.456;19.016;2023-09-12T07:29:20;100225.16;;;21.65;71.07
42297;BME280;72430;47.456;19.016;2023-09-12T07:32:22;100226.78;;;21.93;74.93
42297;BME280;72430;47.456;19.016;2023-09-12T07:35:25;100229.72;;;22.05;70.86
42297;BME280;72430;47.456;19.016;2023-09-12T07:38:27;100229.38;;;22.27;71.14
42297;BME280;72430;47.456;19.016;2023-09-12T07:41:30;100229.72;;;22.44;68.69
42297;BME280;72430;47.456;19.016;2023-09-12T07:44:31;100226.00;;;22.71;70.32
42297;BME280;72430;47.456;19.016;2023-09-12T07:47:33;100219.28;;;22.92;69.66
42297;BME280;72430;47.456;19.016;2023-09-12T07:50:35;100218.91;;;23.14;68.65
42297;BME280;72430;47.456;19.016;2023-09-12T07:53:40;100222.31;;;23.28;67.73
42297;BME280;72430;47.456;19.016;2023-09-12T07:56:43;100215.16;;;23.52;69.50
42297;BME280;72430;47.456;19.016;2023-09-12T07:59:45;100210.94;;;23.50;65.09
42297;BME280;72430;47.456;19.016;2023-09-12T08:02:47;100210.81;;;23.82;67.39
42297;BME280;72430;47.456;19.016;2023-09-12T08:05:56;100210.03;;;23.74;59.31
42297;BME280;72430;47.456;19.016;2023-09-12T08:08:58;100210.94;;;23.68;57.79
42297;BME280;72430;47.456;19.016;2023-09-12T08:12:00;100212.34;;;23.78;57.26
42297;BME280;72430;47.456;19.016;2023-09-12T08:15:02;100205.50;;;24.18;57.39
42297;BME280;72430;47.456;19.016;2023-09-12T08:18:04;100210.72;;;24.26;58.47
42297;BME280;72430;47.456;19.016;2023-09-12T08:21:06;100212.03;;;24.35;55.16
42297;BME280;72430;47.456;19.016;2023-09-12T08:24:08;100214.72;;;24.54;58.76
42297;BME280;72430;47.456;19.016;2023-09-12T08:27:09;100211.66;;;24.74;57.99
42297;BME280;72430;47.456;19.016;2023-09-12T08:30:13;100215.50;;;24.73;55.97
42297;BME280;72430;47.456;19.016;2023-09-12T08:33:15;100214.00;;;24.89;55.12
42297;BME280;72430;47.456;19.016;2023-09-12T08:36:17;100218.44;;;25.14;56.45
42297;BME280;72430;47.456;19.016;2023-09-12T08:39:27;100215.59;;;25.57;57.16
42297;BME280;72430;47.456;19.016;2023-09-12T08:42:30;100210.75;;;25.76;55.15
42297;BME280;72430;47.456;19.016;2023-09-12T08:45:34;100213.25;;;25.90;55.41
42297;BME280;72430;47.456;19.016;2023-09-12T08:48:38;100209.63;;;26.01;53.40
42297;BME280;72430;47.456;19.016;2023-09-12T08:51:41;100203.59;;;26.04;52.53
42297;BME280;72430;47.456;19.016;2023-09-12T08:54:43;100212.44;;;26.30;53.31
42297;BME280;72430;47.456;19.016;2023-09-12T08:57:50;100205.31;;;26.34;53.64
42297;BME280;72430;47.456;19.016;2023-09-12T09:00:52;100213.13;;;26.54;53.22
42297;BME280;72430;47.456;19.016;2023-09-12T09:03:54;100215.22;;;26.64;50.36
42297;BME280;72430;47.456;19.016;2023-09-12T09:06:58;100208.31;;;26.79;50.66
42297;BME280;72430;47.456;19.016;2023-09-12T09:10:03;100213.06;;;26.84;49.86
42297;BME280;72430;47.456;19.016;2023-09-12T09:13:07;100204.88;;;27.06;45.98
42297;BME280;72430;47.456;19.016;2023-09-12T09:16:17;100206.84;;;27.05;47.90
42297;BME280;72430;47.456;19.016;2023-09-12T09:19:44;100202.16;;;27.45;47.37
42297;BME280;72430;47.456;19.016;2023-09-12T09:22:59;100195.41;;;27.76;45.55
42297;BME280;72430;47.456;19.016;2023-09-12T09:26:01;100192.81;;;27.91;45.77
42297;BME280;72430;47.456;19.016;2023-09-12T09:29:08;100194.03;;;28.23;46.48
42297;BME280;72430;47.456;19.016;2023-09-12T09:32:17;100192.22;;;28.11;44.22
42297;BME280;72430;47.456;19.016;2023-09-12T09:35:19;100200.25;;;28.35;43.46
42297;BME280;72430;47.456;19.016;2023-09-12T09:38:21;100200.50;;;28.61;42.23
42297;BME280;72430;47.456;19.016;2023-09-12T09:41:24;100196.88;;;28.88;44.61
42297;BME280;72430;47.456;19.016;2023-09-12T09:44:27;100197.34;;;28.52;38.35
42297;BME280;72430;47.456;19.016;2023-09-12T09:47:29;100194.47;;;28.42;39.19
42297;BME280;72430;47.456;19.016;2023-09-12T09:50:33;100192.78;;;28.96;41.35
42297;BME280;72430;47.456;19.016;2023-09-12T09:53:35;100186.44;;;29.44;40.33
42297;BME280;72430;47.456;19.016;2023-09-12T09:56:50;100186.34;;;29.82;43.44
42297;BME280;72430;47.456;19.016;2023-09-12T09:59:54;100184.94;;;29.74;39.96
42297;BME280;72430;47.456;19.016;2023-09-12T10:02:58;100187.91;;;29.57;37.11
42297;BME280;72430;47.456;19.016;2023-09-12T10:06:04;100187.22;;;29.93;38.40
42297;BME280;72430;47.456;19.016;2023-09-12T10:09:10;100183.34;;;29.99;37.06
42297;BME280;72430;47.456;19.016;2023-09-12T10:12:15;100182.22;;;29.84;35.44
42297;BME280;72430;47.456;19.016;2023-09-12T10:15:20;100179.56;;;30.26;36.59
42297;BME280;72430;47.456;19.016;2023-09-12T10:18:25;100169.53;;;30.25;36.04
42297;BME280;72430;47.456;19.016;2023-09-12T10:21:31;100181.00;;;30.65;35.10
42297;BME280;72430;47.456;19.016;2023-09-12T10:24:35;100175.44;;;30.60;35.16
42297;BME280;72430;47.456;19.016;2023-09-12T10:27:37;100182.13;;;30.79;33.79
42297;BME280;72430;47.456;19.016;2023-09-12T10:30:39;100190.72;;;30.67;35.17
42297;BME280;72430;47.456;19.016;2023-09-12T10:33:43;100180.19;;;30.80;34.53
42297;BME280;72430;47.456;19.016;2023-09-12T10:36:47;100171.81;;;31.01;33.31
42297;BME280;72430;47.456;19.016;2023-09-12T10:39:53;100169.59;;;31.03;34.87
42297;BME280;72430;47.456;19.016;2023-09-12T10:42:56;100159.81;;;31.31;30.79
42297;BME280;72430;47.456;19.016;2023-09-12T10:46:01;100156.44;;;31.45;34.20
42297;BME280;72430;47.456;19.016;2023-09-12T10:49:08;100161.75;;;32.07;35.96
42297;BME280;72430;47.456;19.016;2023-09-12T10:52:24;100167.03;;;31.38;31.72
42297;BME280;72430;47.456;19.016;2023-09-12T10:55:26;100157.97;;;31.77;31.67
42297;BME280;72430;47.456;19.016;2023-09-12T10:58:29;100160.75;;;31.77;31.29
42297;BME280;72430;47.456;19.016;2023-09-12T11:01:32;100159.91;;;31.77;31.26
42297;BME280;72430;47.456;19.016;2023-09-12T11:04:36;100154.88;;;31.84;31.84
42297;BME280;72430;47.456;19.016;2023-09-12T11:10:41;100150.00;;;31.50;29.99
42297;BME280;72430;47.456;19.016;2023-09-12T11:13:43;100142.00;;;32.04;30.84
42297;BME280;72430;47.456;19.016;2023-09-12T11:20:09;100144.69;;;32.59;29.45
42297;BME280;72430;47.456;19.016;2023-09-12T11:23:12;100136.44;;;32.38;29.40
42297;BME280;72430;47.456;19.016;2023-09-12T11:26:13;100130.09;;;32.97;29.38
42297;BME280;72430;47.456;19.016;2023-09-12T11:29:16;100126.84;;;33.63;29.77
42297;BME280;72430;47.456;19.016;2023-09-12T11:32:30;100124.34;;;33.61;30.11
42297;BME280;72430;47.456;19.016;2023-09-12T11:35:36;100125.69;;;33.45;28.14
42297;BME280;72430;47.456;19.016;2023-09-12T11:38:39;100124.91;;;33.83;28.54
42297;BME280;72430;47.456;19.016;2023-09-12T11:41:42;100128.81;;;34.06;27.28
42297;BME280;72430;47.456;19.016;2023-09-12T11:44:44;100119.97;;;34.85;30.26
42297;BME280;72430;47.456;19.016;2023-09-12T11:47:49;100115.50;;;34.70;26.85
42297;BME280;72430;47.456;19.016;2023-09-12T11:50:54;100119.22;;;34.79;27.85
42297;BME280;72430;47.456;19.016;2023-09-12T11:53:56;100104.75;;;34.77;25.53
42297;BME280;72430;47.456;19.016;2023-09-12T11:57:02;100111.72;;;35.50;24.55
42297;BME280;72430;47.456;19.016;2023-09-12T12:00:05;100104.34;;;35.54;24.60
42297;BME280;72430;47.456;19.016;2023-09-12T12:03:10;100100.56;;;36.78;24.24
42297;BME280;72430;47.456;19.016;2023-09-12T12:06:12;100098.44;;;36.52;25.04
42297;BME280;72430;47.456;19.016;2023-09-12T12:09:14;100093.97;;;37.81;23.87
42297;BME280;72430;47.456;19.016;2023-09-12T12:12:20;100091.41;;;35.95;22.80
42297;BME280;72430;47.456;19.016;2023-09-12T12:15:22;100094.72;;;37.38;23.27
42297;BME280;72430;47.456;19.016;2023-09-12T12:18:24;100099.53;;;37.55;22.44
42297;BME280;72430;47.456;19.016;2023-09-12T12:21:26;100099.91;;;39.07;23.58
42297;BME280;72430;47.456;19.016;2023-09-12T12:24:41;100093.13;;;39.08;21.64
42297;BME280;72430;47.456;19.016;2023-09-12T12:27:43;100093.09;;;38.51;21.03
42297;BME280;72430;47.456;19.016;2023-09-12T12:30:45;100090.16;;;39.04;21.02
42297;BME280;72430;47.456;19.016;2023-09-12T12:33:49;100083.88;;;37.89;21.39
42297;BME280;72430;47.456;19.016;2023-09-12T12:37:11;100069.34;;;37.69;21.75
42297;BME280;72430;47.456;19.016;2023-09-12T12:40:15;100073.97;;;37.74;21.25
42297;BME280;72430;47.456;19.016;2023-09-12T12:43:20;100075.19;;;39.13;21.71
42297;BME280;72430;47.456;19.016;2023-09-12T12:46:22;100059.69;;;40.00;21.94
42297;BME280;72430;47.456;19.016;2023-09-12T12:49:24;100055.78;;;39.93;19.40
42297;BME280;72430;47.456;19.016;2023-09-12T12:52:26;100066.34;;;40.30;19.16
42297;BME280;72430;47.456;19.016;2023-09-12T12:55:28;100060.31;;;40.52;20.55
42297;BME280;72430;47.456;19.016;2023-09-12T12:58:30;100060.53;;;41.84;20.28
42297;BME280;72430;47.456;19.016;2023-09-12T13:01:34;100057.59;;;40.90;19.21
42297;BME280;72430;47.456;19.016;2023-09-12T13:04:39;100049.56;;;41.29;18.52
42297;BME280;72430;47.456;19.016;2023-09-12T13:07:40;100047.59;;;41.05;18.82
42297;BME280;72430;47.456;19.016;2023-09-12T13:10:42;100051.59;;;41.98;17.04
42297;BME280;72430;47.456;19.016;2023-09-12T13:13:47;100048.47;;;40.59;20.01
42297;BME280;72430;47.456;19.016;2023-09-12T13:16:50;100052.97;;;42.05;18.08
42297;BME280;72430;47.456;19.016;2023-09-12T13:19:51;100057.09;;;41.00;17.03
42297;BME280;72430;47.456;19.016;2023-09-12T13:22:53;100048.81;;;42.75;15.81
42297;BME280;72430;47.456;19.016;2023-09-12T13:25:56;100049.09;;;43.02;15.19
42297;BME280;72430;47.456;19.016;2023-09-12T13:28:58;99950.28;;;43.17;15.21
42297;BME280;72430;47.456;19.016;2023-09-12T13:32:00;99904.81;;;43.89;14.52
42297;BME280;72430;47.456;19.016;2023-09-12T13:35:02;99879.59;;;45.94;15.60
42297;BME280;72430;47.456;19.016;2023-09-12T13:38:04;99869.22;;;46.73;14.17
42297;BME280;72430;47.456;19.016;2023-09-12T13:41:10;99843.31;;;45.80;14.05
42297;BME280;72430;47.456;19.016;2023-09-12T13:44:12;99841.81;;;47.46;13.18
42297;BME280;72430;47.456;19.016;2023-09-12T13:47:14;99834.91;;;47.72;13.28
42297;BME280;72430;47.456;19.016;2023-09-12T13:50:22;99835.72;;;47.55;13.12
42297;BME280;72430;47.456;19.016;2023-09-12T13:53:25;99843.88;;;48.04;12.93
42297;BME280;72430;47.456;19.016;2023-09-12T13:56:27;99844.72;;;48.08;13.06
42297;BME280;72430;47.456;19.016;2023-09-12T13:59:29;99861.25;;;48.97;11.88
42297;BME280;72430;47.456;19.016;2023-09-12T14:02:44;99879.16;;;46.37;12.48
42297;BME280;72430;47.456;19.016;2023-09-12T14:05:47;99882.22;;;48.32;12.27
42297;BME280;72430;47.456;19.016;2023-09-12T14:08:50;99897.25;;;48.65;12.73
42297;BME280;72430;47.456;19.016;2023-09-12T14:11:53;99901.72;;;47.64;11.77
42297;BME280;72430;47.456;19.016;2023-09-12T14:14:55;99916.13;;;46.97;12.63
42297;BME280;72430;47.456;19.016;2023-09-12T14:18:07;99940.97;;;46.41;12.81
42297;BME280;72430;47.456;19.016;2023-09-12T14:21:11;99966.53;;;49.09;12.95
42297;BME280;72430;47.456;19.016;2023-09-12T14:24:14;99997.59;;;48.38;11.68
42297;BME280;72430;47.456;19.016;2023-09-12T14:27:16;100012.25;;;47.08;13.30
42297;BME280;72430;47.456;19.016;2023-09-12T14:30:27;100018.22;;;46.39;14.66
42297;BME280;72430;47.456;19.016;2023-09-12T14:33:36;100015.69;;;47.42;12.76
42297;BME280;72430;47.456;19.016;2023-09-12T14:36:38;100020.16;;;46.80;13.19
42297;BME280;72430;47.456;19.016;2023-09-12T14:39:40;100022.66;;;46.36;12.66
42297;BME280;72430;47.456;19.016;2023-09-12T14:42:41;100016.13;;;46.81;13.10
42297;BME280;72430;47.456;19.016;2023-09-12T14:45:43;100008.88;;;46.95;12.35
42297;BME280;72430;47.456;19.016;2023-09-12T14:48:46;100016.59;;;46.00;13.05
42297;BME280;72430;47.456;19.016;2023-09-12T14:52:00;100021.88;;;44.32;15.06
42297;BME280;72430;47.456;19.016;2023-09-12T14:55:05;100025.63;;;42.53;15.30
42297;BME280;72430;47.456;19.016;2023-09-12T14:58:09;100031.13;;;38.87;20.32
42297;BME280;72430;47.456;19.016;2023-09-12T15:01:13;100023.31;;;41.98;16.02
42297;BME280;72430;47.456;19.016;2023-09-12T15:04:15;100021.16;;;43.01;15.54
42297;BME280;72430;47.456;19.016;2023-09-12T15:07:17;100016.56;;;44.31;15.56
42297;BME280;72430;47.456;19.016;2023-09-12T15:10:19;100017.22;;;44.00;14.89
42297;BME280;72430;47.456;19.016;2023-09-12T15:13:21;100020.38;;;40.38;18.78
42297;BME280;72430;47.456;19.016;2023-09-12T15:16:24;100016.25;;;38.30;20.70
42297;BME280;72430;47.456;19.016;2023-09-12T15:19:26;100028.84;;;38.23;21.90
42297;BME280;72430;47.456;19.016;2023-09-12T15:22:28;100022.59;;;37.82;22.44
42297;BME280;72430;47.456;19.016;2023-09-12T15:25:30;100020.41;;;37.35;23.44
42297;BME280;72430;47.456;19.016;2023-09-12T15:28:33;100019.63;;;38.53;24.87
42297;BME280;72430;47.456;19.016;2023-09-12T15:31:35;100017.91;;;38.22;21.23
42297;BME280;72430;47.456;19.016;2023-09-12T15:34:37;100017.34;;;39.24;21.88
42297;BME280;72430;47.456;19.016;2023-09-12T15:37:39;100020.19;;;38.85;20.59
42297;BME280;72430;47.456;19.016;2023-09-12T15:40:40;100016.25;;;38.77;24.57
42297;BME280;72430;47.456;19.016;2023-09-12T15:43:42;100013.28;;;38.26;24.59
42297;BME280;72430;47.456;19.016;2023-09-12T15:46:45;100010.50;;;37.38;23.69
42297;BME280;72430;47.456;19.016;2023-09-12T15:49:46;100004.91;;;37.82;27.26
42297;BME280;72430;47.456;19.016;2023-09-12T15:52:48;100007.69;;;36.79;24.19
42297;BME280;72430;47.456;19.016;2023-09-12T15:55:51;100007.38;;;35.95;24.92